• Join FlightAware (Why Join?)
  • Login
  • US Flag 
03:28AM EDT


 

Airport Tracker/Info


-or-


 

Live Flight TrackerFlight Track Log ✈ EJA929 ✈ 13-Apr-2013 ✈ KSJC - KVNY

Flight Track Log - Related Links

Times and Time Zones

All times are in EDT time to prevent confusion due to time zone crossing. See the EJA929 flight status page for this flight to view local times or setup timezone preferences in your user account.

Time Position Orientation Groundspeed Altitude Reporting Facility
EDT Latitude Longitude Course Direction KTS MPH feet Rate Location/Type
05:47PM 37.3833 -121.9500 360° North 168 193 2,600  Level Northern Cal TRACON
05:48PM 37.4333 -121.9500 360° North 239 275 5,100 1,200 Climbing Northern Cal TRACON
05:49PM 37.3833 -121.8833 133° Southeast 269 310 5,100 1,740 Level Northern Cal TRACON
05:50PM 37.3186 -121.8011 135° Southeast 287 330 8,900 2,760 Climbing Oakland Center
05:51PM 37.2497 -121.7244 138° Southeast 321 369 11,100 1,860 Climbing Oakland Center
05:52PM 37.1678 -121.6336 139° Southeast 377 434 12,700 1,800 Climbing Oakland Center
05:53PM 37.0825 -121.5386 138° Southeast 404 465 14,800 1,800 Climbing Oakland Center
05:54PM 36.9872 -121.4336 139° Southeast 421 484 16,400 1,500 Climbing Oakland Center
05:55PM 36.8964 -121.3306 138° Southeast 438 504 17,900 1,440 Climbing Oakland Center
05:56PM 36.8006 -121.2253 139° Southeast 455 524 19,400 1,680 Climbing Oakland Center
05:57PM 36.7025 -121.1175 139° Southeast 467 537 21,400 1,920 Climbing Oakland Center
05:58PM 36.6047 -121.0128 139° Southeast 466 536 23,400 1,980 Climbing Oakland Center
05:59PM 36.5031 -120.8989 138° Southeast 483 556 25,500 1,800 Climbing Oakland Center
06:00PM 36.3942 -120.7753 138° Southeast 490 564 27,100 780 Climbing Oakland Center
06:01PM 36.2833 -120.6572 139° Southeast 508 585 27,100 -60 Level Oakland Center
06:02PM 36.1800 -120.5475 139° Southeast 538 619 27,000  Descending Oakland Center
06:03PM 36.0483 -120.4031 138° Southeast 562 647 27,100  Climbing Oakland Center
06:04PM 35.9489 -120.2989 140° Southeast 541 623 27,000 -60 Descending Oakland Center
06:05PM 35.8339 -120.1753 139° Southeast 543 625 27,000  Level Oakland Center
06:06PM 35.7183 -120.0569 140° Southeast 539 620 27,000  Level Oakland Center
06:07PM 35.5761 -119.9169 141° Southeast 545 627 27,000  Level Oakland Center
06:08PM 35.4511 -119.8103 145° Southeast 546 628 27,000 -60 Level Oakland Center
06:09PM 35.3544 -119.7261 145° Southeast 541 623 26,900 -1,020 Descending Los Angeles Center
06:10PM 35.2100 -119.6022 145° Southeast 524 603 25,000 -1,800 Descending Los Angeles Center
06:11PM 35.0931 -119.5022 145° Southeast 512 589 23,300 -1,920 Descending Los Angeles Center
06:12PM 34.9783 -119.4033 145° Southeast 505 581 21,100 -1,980 Descending Los Angeles Center
06:13PM 34.8908 -119.3294 145° Southeast 486 559 19,300 -2,100 Descending Los Angeles Center
06:14PM 34.7686 -119.2269 145° Southeast 447 514 16,800 -2,220 Descending Los Angeles Center
06:16PM 34.6750 -119.1486 145° Southeast 410 472 14,800 -1,860 Descending Los Angeles Center
06:17PM 34.5858 -119.0708 144° Southeast 360 414 13,000 -1,680 Descending Los Angeles Center
06:18PM 34.5083 -119.0114 148° Southeast 333 383 11,400 -1,560 Descending Los Angeles Center
06:19PM 34.4381 -118.9444 142° Southeast 318 366 9,800 -1,740 Descending Los Angeles Center
06:20PM 34.3817 -118.8722 133° Southeast 298 343 7,900 -1,860 Descending Los Angeles Center
06:21PM 34.3914 -118.7758 83° East 291 335 6,000 -1,440 Descending Los Angeles Center
06:22PM 34.4239 -118.6881 66° East 291 335 5,000 -540 Descending Los Angeles Center
06:23PM 34.4411 -118.6022 76° East 224 258 5,000  Level Los Angeles Center
06:24PM 34.4489 -118.5333 82° East 207 238 5,000  Level Los Angeles Center
06:25PM 34.4117 -118.5089 152° Southeast 192 221 5,000 -300 Level Los Angeles Center
06:26PM 34.3667 -118.5000 171° South 181 208 4,500 -780 Descending Southern California TRACON
06:27PM 34.3167 -118.5000 180° South 151 174 3,600 -1,020 Descending Southern California TRACON
06:28PM 34.2833 -118.5000 180° South 131 151 2,500 -960 Descending Southern California TRACON
06:29PM 34.2500 -118.5000 180° South 133 153 1,600 -900 Descending Southern California TRACON
06:32PM 34.2098 -118.4900 North  Level Estimated